Time;durP1;ratioP1;P1;durP2;ratioP2;P2;SDS_P1;SDS_P2;PMS_P1;PMS_P2;Temp;Humidity;BMP_temperature;BMP_pressure;BME280_temperature;BME280_humidity;BME280_pressure;Samples;Min_cycle;Max_cycle;Signal;HPM_P1;HPM_P2
2022/09/09 00:01:08;;;;;;;1.40;1.30;;;26.40;65.40;;;;;;5047927;28;20460;-70
2022/09/09 00:03:45;;;;;;;1.80;1.40;;;26.40;65.40;;;;;;5053216;28;20798;-69
2022/09/09 00:06:22;;;;;;;1.20;1.10;;;26.40;65.40;;;;;;5052341;28;20461;-70
2022/09/09 00:09:01;;;;;;;1.70;1.60;;;26.40;65.40;;;;;;5052480;28;20452;-70
2022/09/09 00:11:36;;;;;;;1.17;1.03;;;26.40;65.40;;;;;;5052010;28;20473;-70
2022/09/09 00:14:13;;;;;;;1.43;1.33;;;26.40;65.40;;;;;;5044396;28;20924;-70
2022/09/09 00:16:46;;;;;;;1.03;1.00;;;26.30;65.40;;;;;;5052041;28;20486;-69
2022/09/09 00:19:22;;;;;;;1.17;1.07;;;26.30;65.40;;;;;;5051575;28;20463;-70
2022/09/09 00:21:57;;;;;;;2.23;1.20;;;26.30;65.40;;;;;;5048903;28;20468;-70
2022/09/09 00:24:28;;;;;;;1.80;1.33;;;26.30;65.40;;;;;;5052606;28;20436;-70
2022/09/09 00:27:02;;;;;;;2.13;1.30;;;26.30;65.40;;;;;;5052764;28;20496;-70
2022/09/09 00:29:37;;;;;;;2.17;1.50;;;26.30;65.40;;;;;;5051947;28;20458;-70
2022/09/09 00:32:13;;;;;;;1.40;1.30;;;26.30;65.40;;;;;;5050848;28;20575;-70
2022/09/09 00:34:49;;;;;;;1.33;1.20;;;26.30;65.40;;;;;;5052441;28;20477;-70
2022/09/09 00:37:19;;;;;;;2.17;1.30;;;26.30;65.30;;;;;;5032695;28;20869;-70
2022/09/09 00:39:48;;;;;;;1.30;1.20;;;26.30;65.30;;;;;;5049121;28;20469;-70
2022/09/09 00:42:20;;;;;;;1.40;1.30;;;26.30;65.30;;;;;;5052553;28;20456;-70
2022/09/09 00:45:02;;;;;;;2.67;1.30;;;26.30;65.30;;;;;;5052126;28;20443;-73
2022/09/09 00:47:46;;;;;;;1.60;1.40;;;26.30;65.30;;;;;;5032635;28;20458;-70
2022/09/09 00:50:38;;;;;;;1.77;1.63;;;26.30;65.30;;;;;;5052341;28;20940;-70
2022/09/09 00:53:21;;;;;;;2.60;1.73;;;26.30;65.30;;;;;;5052691;28;20953;-70
2022/09/09 00:55:55;;;;;;;1.40;1.30;;;26.20;65.30;;;;;;5050329;28;20551;-70
2022/09/09 00:58:23;;;;;;;1.10;1.07;;;26.20;65.20;;;;;;5051864;28;20555;-70
2022/09/09 01:00:56;;;;;;;1.67;1.57;;;26.20;65.20;;;;;;5039905;28;20473;-70
2022/09/09 01:03:35;;;;;;;1.60;1.50;;;26.20;65.20;;;;;;5051038;28;20548;-70
2022/09/09 01:06:15;;;;;;;2.57;1.20;;;26.20;65.30;;;;;;5051889;28;20457;-70
2022/09/09 01:09:18;;;;;;;1.37;1.17;;;26.20;65.20;;;;;;5050644;28;20862;-72
2022/09/09 01:11:58;;;;;;;1.20;1.20;;;26.20;65.20;;;;;;5051803;28;20479;-69
2022/09/09 01:14:43;;;;;;;1.27;1.17;;;26.10;65.30;;;;;;5050830;28;20884;-70
2022/09/09 01:17:18;;;;;;;1.57;1.47;;;26.20;65.20;;;;;;5050728;28;20476;-70
2022/09/09 01:20:05;;;;;;;1.37;1.27;;;26.10;65.30;;;;;;5050379;28;20456;-69
2022/09/09 01:22:51;;;;;;;1.43;1.33;;;26.10;65.30;;;;;;5050634;28;20472;-70
2022/09/09 01:25:28;;;;;;;1.40;1.30;;;26.10;65.30;;;;;;5050766;28;20454;-70
2022/09/09 01:28:12;;;;;;;1.67;1.33;;;26.10;65.30;;;;;;5050740;28;20469;-69
2022/09/09 01:30:42;;;;;;;1.40;1.30;;;26.10;65.30;;;;;;5051809;28;20577;-70
2022/09/09 01:33:15;;;;;;;5.13;1.47;;;26.10;65.30;;;;;;5048249;28;20492;-70
2022/09/09 01:35:50;;;;;;;1.10;1.10;;;26.10;65.20;;;;;;5050750;28;20493;-70
2022/09/09 01:38:19;;;;;;;2.30;1.50;;;26.10;65.20;;;;;;5050590;28;20816;-70
2022/09/09 01:40:52;;;;;;;1.63;1.47;;;26.10;65.20;;;;;;5048444;28;20547;-70
2022/09/09 01:43:26;;;;;;;1.13;1.03;;;26.10;65.20;;;;;;5050790;28;20520;-70
2022/09/09 01:45:56;;;;;;;1.50;1.40;;;26.10;65.20;;;;;;5052194;28;20825;-70
2022/09/09 01:48:25;;;;;;;1.90;1.30;;;26.10;65.20;;;;;;5047762;28;20454;-70
2022/09/09 01:51:02;;;;;;;1.00;1.00;;;26.10;65.20;;;;;;5045468;28;20458;-70
2022/09/09 01:53:40;;;;;;;1.20;1.10;;;26.10;65.20;;;;;;5050528;28;20472;-69
2022/09/09 01:56:19;;;;;;;1.50;0.97;;;26.10;65.20;;;;;;5050626;28;20471;-70
2022/09/09 01:59:04;;;;;;;1.30;1.20;;;26.10;65.20;;;;;;5050334;28;20548;-70
2022/09/09 02:01:47;;;;;;;1.37;1.20;;;26.00;65.20;;;;;;5048335;28;20476;-69
2022/09/09 02:04:28;;;;;;;1.23;1.13;;;26.00;65.20;;;;;;5033034;28;20472;-69
2022/09/09 02:06:58;;;;;;;1.57;1.37;;;26.00;65.10;;;;;;5045745;28;21019;-70
2022/09/09 02:09:31;;;;;;;1.73;1.30;;;26.10;65.10;;;;;;5050690;28;20452;-71
2022/09/09 02:12:07;;;;;;;1.60;1.30;;;26.00;65.10;;;;;;5046876;28;20475;-70
2022/09/09 02:14:50;;;;;;;1.70;1.60;;;26.00;65.10;;;;;;5030712;28;20460;-69
2022/09/09 02:17:26;;;;;;;1.73;1.33;;;26.00;65.10;;;;;;5043968;28;20558;-74
2022/09/09 02:20:07;;;;;;;2.80;1.47;;;26.00;65.10;;;;;;5043192;28;20467;-70
2022/09/09 02:22:46;;;;;;;2.10;1.70;;;26.00;65.10;;;;;;5047484;28;21363;-69
2022/09/09 02:25:19;;;;;;;1.60;1.50;;;26.00;65.10;;;;;;5047155;28;20460;-70
2022/09/09 02:27:51;;;;;;;1.30;1.20;;;26.00;65.10;;;;;;5038200;28;20538;-70
2022/09/09 02:30:21;;;;;;;1.90;1.77;;;26.00;65.10;;;;;;5069794;28;20456;-70
2022/09/09 02:33:01;;;;;;;2.10;1.67;;;26.00;65.10;;;;;;5050181;28;20483;-70
2022/09/09 02:35:47;;;;;;;2.90;1.43;;;26.00;65.10;;;;;;5049600;28;20476;-70
2022/09/09 02:38:21;;;;;;;1.83;1.53;;;26.00;65.10;;;;;;5053586;28;20484;-69
2022/09/09 02:40:59;;;;;;;1.80;1.67;;;26.00;65.10;;;;;;5054627;28;20495;-72
2022/09/09 02:43:31;;;;;;;2.93;2.10;;;26.00;65.10;;;;;;5053979;28;20522;-69
2022/09/09 02:46:11;;;;;;;2.00;1.80;;;26.00;65.10;;;;;;5053932;28;20558;-70
2022/09/09 02:48:50;;;;;;;1.57;1.47;;;26.00;65.10;;;;;;5053151;28;20479;-70
2022/09/09 02:51:24;;;;;;;1.60;1.50;;;26.00;65.10;;;;;;5054095;28;20556;-71
2022/09/09 02:54:00;;;;;;;1.80;1.70;;;26.00;65.10;;;;;;5053395;28;20454;-70
2022/09/09 02:56:33;;;;;;;2.17;1.63;;;25.90;65.10;;;;;;5053494;28;21016;-70
2022/09/09 02:59:04;;;;;;;2.13;2.00;;;25.90;65.10;;;;;;5053531;28;20467;-70
2022/09/09 03:01:35;;;;;;;1.37;1.20;;;25.90;65.00;;;;;;5078161;28;20472;-70
2022/09/09 03:04:05;;;;;;;1.60;1.50;;;25.90;65.00;;;;;;5052273;28;20562;-70
2022/09/09 03:06:33;;;;;;;1.50;1.40;;;25.90;65.00;;;;;;5053596;28;21176;-70
2022/09/09 03:09:11;;;;;;;1.90;1.70;;;25.90;65.00;;;;;;5053220;28;20475;-69
2022/09/09 03:11:39;;;;;;;1.50;1.40;;;25.90;65.00;;;;;;5054080;28;20476;-70
2022/09/09 03:14:08;;;;;;;1.40;1.30;;;25.90;65.00;;;;;;5053333;28;20455;-73
2022/09/09 03:16:38;;;;;;;1.80;1.40;;;25.90;65.00;;;;;;5066315;28;21000;-69
2022/09/09 03:19:07;;;;;;;1.87;1.30;;;25.90;65.00;;;;;;5041226;28;20496;-70
2022/09/09 03:21:35;;;;;;;1.50;1.40;;;25.90;65.00;;;;;;5054754;28;20438;-70
2022/09/09 03:24:04;;;;;;;1.10;1.10;;;25.90;65.00;;;;;;5052858;28;20543;-70
2022/09/09 03:26:32;;;;;;;1.83;1.60;;;25.90;65.00;;;;;;5052397;28;20558;-69
2022/09/09 03:29:02;;;;;;;1.67;1.57;;;25.90;65.00;;;;;;5054014;28;20449;-70
2022/09/09 03:31:31;;;;;;;1.47;1.37;;;25.90;65.00;;;;;;5052939;28;20457;-70
2022/09/09 03:34:01;;;;;;;1.43;1.33;;;25.90;65.00;;;;;;5051908;28;20594;-69
2022/09/09 03:36:32;;;;;;;1.90;1.80;;;25.90;65.00;;;;;;5051758;28;20538;-70
2022/09/09 03:39:02;;;;;;;1.60;1.50;;;25.90;64.90;;;;;;5052557;28;20463;-70
2022/09/09 03:41:31;;;;;;;3.10;1.77;;;25.90;64.90;;;;;;5051125;28;20468;-70
2022/09/09 03:44:01;;;;;;;1.20;1.17;;;25.90;64.90;;;;;;5053167;28;21016;-69
2022/09/09 03:46:34;;;;;;;1.30;1.20;;;25.90;64.90;;;;;;5052561;28;20468;-71
2022/09/09 03:49:04;;;;;;;1.23;1.13;;;25.90;64.90;;;;;;5051664;28;20480;-70
2022/09/09 03:51:36;;;;;;;1.60;1.50;;;25.90;64.90;;;;;;5052905;28;20958;-70
2022/09/09 03:54:08;;;;;;;1.20;1.10;;;25.80;64.90;;;;;;5052225;28;20472;-70
2022/09/09 03:56:37;;;;;;;1.40;1.30;;;25.80;64.90;;;;;;5051798;28;21031;-70
2022/09/09 03:59:05;;;;;;;1.40;1.10;;;25.80;64.90;;;;;;5053496;28;20452;-70
2022/09/09 04:01:33;;;;;;;1.57;1.47;;;25.80;64.90;;;;;;5084734;28;20463;-69
2022/09/09 04:04:02;;;;;;;1.30;1.20;;;25.80;64.90;;;;;;5051801;28;20939;-70
2022/09/09 04:06:31;;;;;;;1.37;1.20;;;25.80;64.90;;;;;;5052090;28;20500;-70
2022/09/09 04:09:02;;;;;;;1.40;1.30;;;25.80;64.90;;;;;;5051020;28;21050;-69
2022/09/09 04:11:31;;;;;;;1.17;1.07;;;25.80;64.90;;;;;;5051988;28;20456;-69
2022/09/09 04:14:00;;;;;;;1.50;1.27;;;25.80;64.90;;;;;;5051978;28;20494;-70
2022/09/09 04:16:31;;;;;;;1.73;1.20;;;25.80;64.80;;;;;;5050288;28;20487;-71
2022/09/09 04:19:01;;;;;;;1.17;1.13;;;25.80;64.80;;;;;;5051165;28;20495;-70
2022/09/09 04:21:30;;;;;;;1.70;0.97;;;25.80;64.90;;;;;;5048152;28;20737;-69
2022/09/09 04:24:00;;;;;;;1.53;1.43;;;25.80;64.80;;;;;;5044653;28;20468;-70
2022/09/09 04:26:28;;;;;;;1.30;1.20;;;25.80;64.80;;;;;;5038404;28;20500;-70
2022/09/09 04:28:57;;;;;;;1.10;1.10;;;25.80;64.80;;;;;;5052372;28;20547;-70
2022/09/09 04:31:27;;;;;;;1.90;1.53;;;25.80;64.80;;;;;;5081196;28;20522;-70
2022/09/09 04:33:57;;;;;;;1.67;1.20;;;25.80;64.80;;;;;;5051998;28;20559;-69
2022/09/09 04:36:26;;;;;;;1.20;1.10;;;25.80;64.80;;;;;;5051082;28;20465;-70
2022/09/09 04:39:01;;;;;;;1.70;1.17;;;25.80;64.80;;;;;;5045998;28;20493;-70
2022/09/09 04:41:31;;;;;;;1.40;1.30;;;25.80;64.80;;;;;;5052768;28;20459;-70
2022/09/09 04:44:00;;;;;;;1.10;1.07;;;25.80;64.80;;;;;;5051216;28;20474;-70
2022/09/09 04:46:28;;;;;;;1.13;1.10;;;25.80;64.80;;;;;;5047439;28;20517;-69
2022/09/09 04:48:58;;;;;;;1.40;1.30;;;25.80;64.80;;;;;;5050607;28;20487;-70
2022/09/09 04:51:31;;;;;;;1.33;1.23;;;25.80;64.80;;;;;;5050729;28;20501;-69
2022/09/09 04:54:00;;;;;;;3.60;1.20;;;25.80;64.80;;;;;;5050369;28;20837;-69
2022/09/09 04:56:28;;;;;;;1.23;1.20;;;25.80;64.80;;;;;;5048977;28;20464;-70
2022/09/09 04:59:02;;;;;;;1.30;1.20;;;25.80;64.80;;;;;;5050410;28;20464;-69
2022/09/09 05:01:42;;;;;;;1.60;1.30;;;25.70;64.80;;;;;;5044678;28;20466;-69
2022/09/09 05:04:11;;;;;;;1.30;1.20;;;25.70;64.80;;;;;;5047811;28;20460;-70
2022/09/09 05:06:40;;;;;;;1.70;1.60;;;25.70;64.80;;;;;;5048978;28;20465;-70
2022/09/09 05:09:09;;;;;;;1.40;1.30;;;25.70;64.80;;;;;;5050732;28;20456;-70
2022/09/09 05:11:38;;;;;;;1.60;1.20;;;25.70;64.80;;;;;;5050227;28;20474;-69
2022/09/09 05:14:16;;;;;;;1.33;1.10;;;25.70;64.80;;;;;;5049048;28;20488;-70
2022/09/09 05:16:46;;;;;;;1.27;1.17;;;25.70;64.80;;;;;;5047720;28;21043;-70
2022/09/09 05:19:15;;;;;;;1.00;1.00;;;25.70;64.80;;;;;;5079279;28;20992;-71
2022/09/09 05:21:47;;;;;;;1.30;1.20;;;25.70;64.80;;;;;;5046592;28;20464;-70
2022/09/09 05:24:20;;;;;;;1.13;1.13;;;25.70;64.80;;;;;;5048593;28;20554;-74
2022/09/09 05:26:51;;;;;;;1.47;1.30;;;25.70;64.80;;;;;;5048216;28;20500;-69
2022/09/09 05:29:19;;;;;;;2.20;1.63;;;25.70;64.80;;;;;;5051994;28;20939;-69
2022/09/09 05:31:48;;;;;;;1.60;1.50;;;25.70;64.80;;;;;;5049015;28;20529;-73
2022/09/09 05:34:20;;;;;;;1.30;1.20;;;25.70;64.80;;;;;;5039958;28;20466;-69
2022/09/09 05:36:51;;;;;;;1.30;1.20;;;25.70;64.80;;;;;;5045761;28;20464;-70
2022/09/09 05:39:23;;;;;;;2.67;1.67;;;25.70;64.80;;;;;;5045270;28;20885;-70
2022/09/09 05:41:51;;;;;;;1.27;1.17;;;25.70;64.90;;;;;;5046450;28;20464;-72
2022/09/09 05:44:20;;;;;;;1.50;1.40;;;25.70;64.90;;;;;;5044492;28;20960;-69
2022/09/09 05:46:49;;;;;;;1.70;1.20;;;25.70;64.90;;;;;;5047198;28;20529;-70
2022/09/09 05:49:17;;;;;;;2.43;1.63;;;25.70;64.90;;;;;;5048342;28;20467;-69
2022/09/09 05:51:45;;;;;;;1.30;1.10;;;25.70;64.90;;;;;;5049195;28;20466;-70
2022/09/09 05:54:15;;;;;;;1.97;1.73;;;25.70;64.90;;;;;;5049489;28;20471;-71
2022/09/09 05:56:52;;;;;;;1.47;1.37;;;25.70;65.00;;;;;;5043198;28;20468;-70
2022/09/09 05:59:23;;;;;;;1.33;1.10;;;25.70;65.00;;;;;;5046775;28;20965;-69
2022/09/09 06:01:52;;;;;;;1.73;1.63;;;25.70;65.00;;;;;;5048535;28;20984;-70
2022/09/09 06:04:30;;;;;;;1.90;1.70;;;25.70;65.00;;;;;;5048934;28;20462;-69
2022/09/09 06:07:00;;;;;;;1.33;1.23;;;25.70;65.10;;;;;;5048991;28;20510;-70
2022/09/09 06:09:30;;;;;;;1.40;1.30;;;25.70;65.10;;;;;;5050349;28;20503;-69
2022/09/09 06:11:59;;;;;;;1.50;1.40;;;25.70;65.10;;;;;;5050561;28;20471;-71
2022/09/09 06:14:28;;;;;;;1.70;1.10;;;25.70;65.10;;;;;;5051240;28;20478;-71
2022/09/09 06:16:59;;;;;;;1.20;1.10;;;25.70;65.10;;;;;;5053545;28;20570;-69
2022/09/09 06:19:30;;;;;;;2.60;1.57;;;25.70;65.10;;;;;;5052499;28;20543;-69
2022/09/09 06:21:59;;;;;;;1.70;1.60;;;25.70;65.20;;;;;;5053198;28;20464;-69
2022/09/09 06:24:31;;;;;;;2.40;1.83;;;25.70;65.20;;;;;;5052351;28;20897;-69
2022/09/09 06:27:02;;;;;;;3.17;1.20;;;25.70;65.20;;;;;;5053619;28;20874;-69
2022/09/09 06:29:34;;;;;;;2.40;2.00;;;25.70;65.40;;;;;;5053805;28;20472;-69
2022/09/09 06:32:03;;;;;;;2.17;1.97;;;25.70;65.70;;;;;;5043408;28;20459;-69
2022/09/09 06:34:32;;;;;;;1.77;1.50;;;25.70;65.50;;;;;;5052442;28;20999;-69
2022/09/09 06:37:01;;;;;;;2.33;1.57;;;25.80;65.80;;;;;;5047970;28;20494;-70
2022/09/09 06:39:50;;;;;;;2.53;1.30;;;25.80;65.80;;;;;;5048821;28;20453;-71
2022/09/09 06:42:21;;;;;;;1.70;1.60;;;25.90;65.80;;;;;;5040531;28;20472;-72
2022/09/09 06:44:49;;;;;;;1.90;1.40;;;25.90;65.80;;;;;;5047503;28;20454;-70
2022/09/09 06:47:25;;;;;;;1.60;1.50;;;25.90;65.80;;;;;;5045928;28;20559;-71
2022/09/09 06:49:54;;;;;;;1.53;1.30;;;25.90;65.70;;;;;;5052124;28;21005;-71
2022/09/09 06:52:22;;;;;;;1.27;1.20;;;25.90;65.50;;;;;;5051675;28;20511;-72
2022/09/09 06:54:51;;;;;;;2.40;2.07;;;25.90;65.60;;;;;;5054634;28;20812;-69
2022/09/09 06:57:20;;;;;;;2.10;1.90;;;25.90;65.40;;;;;;5052655;28;20924;-69
2022/09/09 07:00:08;;;;;;;2.30;1.87;;;25.90;65.40;;;;;;5051964;28;20460;-70
2022/09/09 07:02:39;;;;;;;1.40;1.30;;;25.90;65.60;;;;;;5050573;28;20507;-70
2022/09/09 07:05:09;;;;;;;1.30;1.20;;;26.00;65.60;;;;;;5043299;28;20814;-69
2022/09/09 07:07:38;;;;;;;3.37;1.20;;;26.00;65.60;;;;;;5051043;28;20958;-70
2022/09/09 07:10:07;;;;;;;1.87;1.47;;;26.00;65.60;;;;;;5051220;28;20887;-69
2022/09/09 07:12:39;;;;;;;2.10;1.73;;;26.00;65.60;;;;;;5046790;28;20469;-70
2022/09/09 07:15:11;;;;;;;3.10;1.87;;;26.00;65.50;;;;;;5051700;28;20475;-70
2022/09/09 07:17:42;;;;;;;1.60;1.50;;;26.10;65.40;;;;;;5052438;28;20491;-71
2022/09/09 07:20:11;;;;;;;4.23;1.73;;;26.10;65.20;;;;;;5051679;28;20459;-70
2022/09/09 07:22:39;;;;;;;3.23;1.70;;;26.10;65.30;;;;;;5050196;28;20491;-70
2022/09/09 07:25:09;;;;;;;1.60;1.50;;;26.10;65.20;;;;;;5048670;28;20818;-69
2022/09/09 07:27:40;;;;;;;2.20;1.60;;;26.10;65.20;;;;;;5048299;28;20573;-70
2022/09/09 07:30:11;;;;;;;1.90;1.53;;;26.10;65.30;;;;;;5051643;28;20464;-70
2022/09/09 07:32:46;;;;;;;2.63;1.30;;;26.10;65.20;;;;;;5052221;28;20960;-69
2022/09/09 07:35:15;;;;;;;1.43;1.30;;;26.20;65.00;;;;;;5044718;28;20979;-70
2022/09/09 07:37:45;;;;;;;2.80;1.90;;;26.20;64.90;;;;;;5047879;28;20460;-73
2022/09/09 07:40:19;;;;;;;3.97;1.43;;;26.20;64.90;;;;;;5048120;28;20464;-70
2022/09/09 07:42:49;;;;;;;2.07;1.33;;;26.30;64.90;;;;;;5052886;28;20456;-69
2022/09/09 07:45:18;;;;;;;2.40;1.80;;;26.30;64.90;;;;;;5051503;28;20474;-70
2022/09/09 07:47:47;;;;;;;3.10;1.70;;;26.30;64.90;;;;;;5050422;28;21050;-71
2022/09/09 07:50:16;;;;;;;1.47;1.37;;;26.30;64.90;;;;;;5050442;28;21011;-69
2022/09/09 07:52:45;;;;;;;2.50;2.30;;;26.30;64.90;;;;;;5052400;28;20514;-69
2022/09/09 07:55:13;;;;;;;2.13;1.90;;;26.30;64.70;;;;;;5051729;28;20853;-68
2022/09/09 07:57:42;;;;;;;2.10;1.90;;;26.30;64.70;;;;;;5051961;28;20470;-71
2022/09/09 08:00:14;;;;;;;1.93;1.20;;;26.30;64.70;;;;;;5051358;28;20457;-71
2022/09/09 08:02:46;;;;;;;3.00;1.60;;;26.30;64.50;;;;;;5047857;28;20464;-76
2022/09/09 08:05:16;;;;;;;1.30;1.20;;;26.40;64.70;;;;;;5048225;28;20499;-73
2022/09/09 08:07:45;;;;;;;1.33;1.23;;;26.40;64.80;;;;;;5052158;28;21003;-75
2022/09/09 08:10:14;;;;;;;1.50;1.40;;;26.50;64.90;;;;;;5051948;28;20483;-75
2022/09/09 08:12:42;;;;;;;1.63;1.37;;;26.50;64.70;;;;;;5050926;28;20459;-75
2022/09/09 08:15:34;;;;;;;1.50;1.40;;;26.50;64.70;;;;;;5050281;28;20461;-76
2022/09/09 08:18:04;;;;;;;1.53;1.40;;;26.50;64.60;;;;;;5048054;28;20490;-77
2022/09/09 08:20:33;;;;;;;1.70;1.60;;;26.50;64.80;;;;;;5047397;28;20461;-75
2022/09/09 08:23:01;;;;;;;2.17;1.97;;;26.60;64.70;;;;;;5051158;28;20541;-75
2022/09/09 08:25:30;;;;;;;2.07;1.97;;;26.60;64.70;;;;;;5048628;28;20509;-72
2022/09/09 08:27:58;;;;;;;2.80;1.80;;;26.60;64.90;;;;;;5047850;28;20573;-76
2022/09/09 08:30:26;;;;;;;3.37;2.43;;;26.60;64.70;;;;;;5045416;28;20467;-73
2022/09/09 08:32:56;;;;;;;1.60;1.50;;;26.60;64.70;;;;;;5048276;28;20452;-72
2022/09/09 08:35:25;;;;;;;1.90;1.77;;;26.60;64.70;;;;;;5048508;28;20485;-72
2022/09/09 08:37:55;;;;;;;2.73;1.40;;;26.60;64.70;;;;;;5051542;28;20461;-79
2022/09/09 08:40:30;;;;;;;1.47;1.37;;;26.60;64.70;;;;;;5041773;28;20467;-74
2022/09/09 08:43:02;;;;;;;1.50;1.33;;;26.60;64.80;;;;;;5048545;28;21540;-73
2022/09/09 08:45:39;;;;;;;1.77;1.67;;;26.60;64.60;;;;;;5046870;28;20466;-73
2022/09/09 08:48:26;;;;;;;1.90;1.70;;;26.60;64.60;;;;;;5043705;28;20473;-75
2022/09/09 08:51:01;;;;;;;1.83;1.40;;;26.70;64.80;;;;;;5081684;28;20497;-74
2022/09/09 08:53:42;;;;;;;1.37;1.27;;;26.70;64.70;;;;;;5042477;28;20458;-70
2022/09/09 08:56:18;;;;;;;2.90;1.50;;;26.70;64.70;;;;;;5048300;28;20905;-71
2022/09/09 08:58:50;;;;;;;1.70;1.60;;;26.70;64.80;;;;;;5047052;28;20462;-75
2022/09/09 09:01:43;;;;;;;1.30;1.20;;;26.70;64.70;;;;;;5047303;28;20479;-73
2022/09/09 09:04:36;;;;;;;2.00;1.53;;;26.70;65.00;;;;;;5047726;28;20525;-73
2022/09/09 09:07:15;;;;;;;2.17;1.40;;;26.70;65.10;;;;;;5045484;28;20793;-75
2022/09/09 09:09:58;;;;;;;3.57;1.60;;;26.70;65.10;;;;;;5069561;28;20554;-73
2022/09/09 09:12:30;;;;;;;5.37;1.67;;;26.70;65.10;;;;;;5043352;28;20472;-77
2022/09/09 09:15:00;;;;;;;2.30;1.50;;;26.70;65.10;;;;;;5046267;28;20511;-76
2022/09/09 09:17:33;;;;;;;2.50;1.50;;;26.70;65.30;;;;;;5046375;28;20497;-78
2022/09/09 09:20:07;;;;;;;1.63;1.53;;;26.70;65.10;;;;;;5046526;28;20462;-79
2022/09/09 09:22:44;;;;;;;1.70;1.57;;;26.70;65.30;;;;;;5043907;28;20455;-80
2022/09/09 09:25:20;;;;;;;1.40;1.27;;;26.70;65.40;;;;;;5063666;28;20472;-75
2022/09/09 09:27:58;;;;;;;3.17;1.90;;;26.70;64.90;;;;;;5045054;28;20575;-82
2022/09/09 09:30:30;;;;;;;5.77;1.60;;;26.70;65.30;;;;;;5041569;28;20469;-77
2022/09/09 09:33:12;;;;;;;2.47;1.40;;;26.80;65.50;;;;;;5042085;28;20490;-77
2022/09/09 09:35:42;;;;;;;2.03;1.60;;;26.80;65.20;;;;;;5049051;28;20469;-77
2022/09/09 09:38:19;;;;;;;1.50;1.10;;;26.80;65.30;;;;;;5043206;28;20974;-78
2022/09/09 09:41:14;;;;;;;1.50;1.40;;;26.90;65.00;;;;;;5044051;28;20466;-78
2022/09/09 09:43:43;;;;;;;1.83;1.57;;;26.90;64.70;;;;;;5042802;28;20460;-79
2022/09/09 09:46:23;;;;;;;1.43;1.20;;;26.90;64.70;;;;;;5045862;28;20460;-76
2022/09/09 09:48:58;;;;;;;2.80;1.50;;;26.90;65.00;;;;;;5040661;28;20454;-77
2022/09/09 09:51:30;;;;;;;4.63;1.27;;;26.80;64.70;;;;;;5045958;28;20506;-76
2022/09/09 09:54:15;;;;;;;1.90;1.57;;;26.90;64.90;;;;;;5050025;28;20581;-77
2022/09/09 09:56:48;;;;;;;1.77;1.50;;;26.90;64.60;;;;;;5068320;28;20589;-75
2022/09/09 09:59:33;;;;;;;2.60;1.60;;;26.90;64.60;;;;;;5047712;28;20473;-75
2022/09/09 10:02:24;;;;;;;1.53;1.43;;;26.90;64.60;;;;;;5048812;28;21213;-74
2022/09/09 10:05:07;;;;;;;2.10;1.53;;;26.90;64.70;;;;;;5049399;28;21139;-77
2022/09/09 10:07:38;;;;;;;2.10;1.40;;;26.90;64.80;;;;;;5048796;28;20517;-76
2022/09/09 10:10:14;;;;;;;1.50;1.40;;;26.90;64.70;;;;;;5048377;28;20448;-77
2022/09/09 10:12:54;;;;;;;1.67;1.57;;;26.90;65.00;;;;;;5049133;28;20897;-77
2022/09/09 10:15:35;;;;;;;2.33;1.30;;;26.90;65.00;;;;;;5047524;28;20446;-76
2022/09/09 10:18:17;;;;;;;1.37;1.27;;;26.90;64.60;;;;;;5048140;28;20509;-76
2022/09/09 10:20:55;;;;;;;1.27;1.13;;;26.90;65.40;;;;;;5049866;28;20492;-77
2022/09/09 10:23:42;;;;;;;1.07;0.97;;;26.90;64.60;;;;;;5047535;28;20450;-76
2022/09/09 10:26:33;;;;;;;1.73;1.30;;;26.90;64.50;;;;;;5051234;28;20501;-76
2022/09/09 10:29:37;;;;;;;1.30;1.20;;;26.90;64.10;;;;;;5052181;28;20465;-77
2022/09/09 10:32:19;;;;;;;1.77;1.33;;;27.00;64.20;;;;;;5014636;28;20513;-76
2022/09/09 10:34:58;;;;;;;1.87;1.00;;;27.00;64.10;;;;;;5046876;28;21245;-78
2022/09/09 10:37:43;;;;;;;1.30;1.20;;;27.00;64.70;;;;;;5047686;28;20475;-76
2022/09/09 10:40:30;;;;;;;1.40;1.30;;;27.10;65.00;;;;;;5049837;28;20465;-77
2022/09/09 10:43:10;;;;;;;2.40;1.20;;;27.20;64.80;;;;;;5049360;28;20492;-79
2022/09/09 10:45:50;;;;;;;1.20;1.10;;;27.20;64.30;;;;;;5048660;28;20472;-76
2022/09/09 10:48:32;;;;;;;1.40;1.17;;;27.30;64.20;;;;;;5050911;28;20462;-76
2022/09/09 10:51:22;;;;;;;1.27;1.10;;;27.40;63.80;;;;;;5051357;28;20487;-77
2022/09/09 10:54:03;;;;;;;3.17;1.23;;;27.60;63.40;;;;;;5051120;28;20448;-79
2022/09/09 10:56:34;;;;;;;2.20;1.10;;;27.70;63.30;;;;;;5048078;28;20481;-77
2022/09/09 10:59:09;;;;;;;1.90;1.23;;;27.80;62.90;;;;;;5052496;28;20466;-77
2022/09/09 11:01:44;;;;;;;1.53;1.40;;;27.90;62.90;;;;;;5052629;28;20460;-80
2022/09/09 11:04:17;;;;;;;1.30;0.93;;;28.10;62.50;;;;;;5045415;28;20458;-76
2022/09/09 11:06:51;;;;;;;1.40;1.30;;;28.30;61.90;;;;;;5054473;28;20546;-78
2022/09/09 11:09:23;;;;;;;0.80;0.80;;;28.60;61.30;;;;;;5053717;28;20797;-76
2022/09/09 11:11:55;;;;;;;1.77;1.30;;;28.90;60.70;;;;;;5052161;28;20458;-81
2022/09/09 11:14:32;;;;;;;1.20;0.93;;;29.10;60.10;;;;;;5051509;28;20466;-76
2022/09/09 11:17:13;;;;;;;1.80;0.87;;;29.30;59.50;;;;;;5043692;28;20584;-76
2022/09/09 11:19:45;;;;;;;1.10;0.97;;;29.50;59.10;;;;;;5054149;28;20538;-77
2022/09/09 11:22:26;;;;;;;1.10;1.00;;;29.70;58.80;;;;;;5052007;28;20469;-77
2022/09/09 11:25:00;;;;;;;3.43;0.90;;;29.80;58.30;;;;;;5051577;28;20502;-77
2022/09/09 11:27:33;;;;;;;0.70;0.70;;;29.90;58.10;;;;;;5050480;28;20496;-79
2022/09/09 11:30:19;;;;;;;1.63;1.20;;;30.00;58.00;;;;;;5050167;28;20445;-79
2022/09/09 11:33:32;;;;;;;1.33;1.00;;;30.10;57.60;;;;;;5049428;28;20460;-76
2022/09/09 11:36:32;;;;;;;1.87;0.93;;;30.40;57.10;;;;;;5048068;28;20465;-77
2022/09/09 11:39:08;;;;;;;1.07;0.83;;;30.50;56.60;;;;;;5048969;28;20462;-77
2022/09/09 11:41:38;;;;;;;1.50;0.90;;;30.60;56.50;;;;;;5050074;28;20539;-77
2022/09/09 11:44:18;;;;;;;1.10;1.03;;;30.60;56.40;;;;;;5043674;28;20957;-77
2022/09/09 11:46:50;;;;;;;3.00;1.13;;;30.40;56.60;;;;;;5051476;28;20458;-78
2022/09/09 11:49:28;;;;;;;1.90;1.03;;;30.30;57.00;;;;;;5049573;28;21022;-80
2022/09/09 11:51:57;;;;;;;1.00;1.00;;;30.40;57.00;;;;;;5046503;28;20464;-78
2022/09/09 11:54:32;;;;;;;1.43;0.80;;;30.50;56.80;;;;;;5044778;28;20464;-81
2022/09/09 11:57:01;;;;;;;1.17;1.07;;;30.40;56.60;;;;;;5039843;28;20483;-78
2022/09/09 11:59:32;;;;;;;1.03;0.97;;;30.20;56.80;;;;;;5048024;28;20466;-77
2022/09/09 12:02:02;;;;;;;0.67;0.67;;;29.90;57.60;;;;;;5046822;28;20478;-78
2022/09/09 12:04:39;;;;;;;0.80;0.80;;;29.60;58.20;;;;;;5045691;28;20468;-76
2022/09/09 12:07:31;;;;;;;1.43;0.83;;;29.40;58.90;;;;;;5049427;28;20455;-77
2022/09/09 12:10:04;;;;;;;1.40;0.90;;;29.20;59.40;;;;;;5044421;28;20991;-72
2022/09/09 12:12:34;;;;;;;3.33;0.80;;;29.40;59.20;;;;;;5046737;28;20538;-77
2022/09/09 12:15:28;;;;;;;1.10;1.00;;;29.80;58.60;;;;;;5047426;28;21005;-81
2022/09/09 12:18:00;;;;;;;0.90;0.90;;;30.10;57.90;;;;;;5041819;28;20536;-80
2022/09/09 12:20:35;;;;;;;0.83;0.83;;;30.50;57.40;;;;;;5044150;28;20448;-79
2022/09/09 12:23:23;;;;;;;1.33;0.90;;;30.70;57.00;;;;;;5050013;28;20893;-81
2022/09/09 12:26:02;;;;;;;1.20;0.80;;;31.00;56.50;;;;;;5046895;28;20440;-78
2022/09/09 12:28:51;;;;;;;1.70;0.93;;;31.20;56.10;;;;;;5047835;28;20455;-80
2022/09/09 12:31:26;;;;;;;1.90;0.83;;;31.30;55.90;;;;;;5048630;28;20812;-77
2022/09/09 12:33:54;;;;;;;0.90;0.90;;;31.50;55.80;;;;;;5051190;28;20455;-77
2022/09/09 12:36:28;;;;;;;2.83;0.90;;;31.50;55.70;;;;;;5050298;28;20445;-77
2022/09/09 12:38:59;;;;;;;1.53;1.00;;;31.40;55.90;;;;;;5046492;28;20478;-78
2022/09/09 12:41:29;;;;;;;1.03;0.90;;;31.10;56.60;;;;;;5043973;28;20541;-82
2022/09/09 12:44:07;;;;;;;1.90;1.20;;;30.80;57.00;;;;;;5048012;28;20788;-77
2022/09/09 12:46:41;;;;;;;1.03;0.93;;;30.70;57.70;;;;;;5050544;28;20475;-79
2022/09/09 12:49:28;;;;;;;1.60;0.70;;;30.70;57.80;;;;;;5048733;28;20927;-78
2022/09/09 12:51:58;;;;;;;1.00;0.90;;;30.70;57.80;;;;;;5047320;28;20467;-76
2022/09/09 12:54:27;;;;;;;1.03;0.97;;;30.80;57.90;;;;;;5050333;28;20468;-78
2022/09/09 12:56:56;;;;;;;1.93;1.17;;;30.90;57.90;;;;;;5050016;28;20457;-76
2022/09/09 12:59:25;;;;;;;0.87;0.87;;;30.90;57.70;;;;;;5047060;28;20469;-78
2022/09/09 13:01:59;;;;;;;1.80;0.70;;;30.90;57.80;;;;;;5046032;28;20455;-80
2022/09/09 13:04:28;;;;;;;0.80;0.73;;;30.80;58.10;;;;;;5047906;28;20443;-77
2022/09/09 13:07:11;;;;;;;0.80;0.80;;;30.50;58.40;;;;;;5048280;28;20505;-77
2022/09/09 13:09:39;;;;;;;1.00;0.90;;;30.30;58.90;;;;;;5045228;28;20475;-78
2022/09/09 13:12:13;;;;;;;0.90;0.90;;;30.10;59.30;;;;;;5045564;28;20441;-77
2022/09/09 13:14:46;;;;;;;1.23;1.07;;;30.00;59.60;;;;;;5050849;28;20463;-79
2022/09/09 13:17:22;;;;;;;1.70;0.70;;;29.80;60.10;;;;;;5043789;28;20604;-80
2022/09/09 13:19:52;;;;;;;1.73;1.00;;;29.60;60.20;;;;;;5048678;28;20441;-78
2022/09/09 13:22:32;;;;;;;1.10;0.90;;;29.50;60.60;;;;;;5048157;28;20823;-79
2022/09/09 13:25:04;;;;;;;1.50;0.87;;;29.40;60.90;;;;;;5041611;28;20883;-79